Time;durP1;ratioP1;P1;durP2;ratioP2;P2;SDS_P1;SDS_P2;PMS_P1;PMS_P2;Temp;Humidity;BMP_temperature;BMP_pressure;BME280_temperature;BME280_humidity;BME280_pressure;Samples;Min_cycle;Max_cycle;Signal;HPM_P1;HPM_P2
2023/03/22 00:00:26;;;;;;;7.03;6.23;;;;;;;9.54;91.54;100171.81;4996694;28;20654;-78
2023/03/22 00:02:52;;;;;;;6.37;5.83;;;;;;;9.50;91.75;100162.31;4996735;28;20207;-81
2023/03/22 00:05:19;;;;;;;6.40;5.80;;;;;;;9.41;91.91;100170.31;4997004;28;20209;-79
2023/03/22 00:07:48;;;;;;;7.00;6.37;;;;;;;9.43;91.89;100158.09;5008462;28;20206;-81
2023/03/22 00:10:16;;;;;;;6.30;5.70;;;;;;;9.43;91.64;100163.31;5017036;28;20242;-80
2023/03/22 00:12:43;;;;;;;6.33;5.73;;;;;;;9.33;91.69;100162.63;5016805;28;20226;-79
2023/03/22 00:15:10;;;;;;;6.03;5.17;;;;;;;9.30;92.17;100152.28;5016730;28;20245;-80
2023/03/22 00:17:37;;;;;;;6.60;6.00;;;;;;;9.32;92.33;100139.25;5015871;28;20279;-79
2023/03/22 00:20:05;;;;;;;5.77;5.27;;;;;;;9.30;92.70;100130.59;5015564;28;20211;-81
2023/03/22 00:22:31;;;;;;;5.83;5.33;;;;;;;9.29;92.88;100121.91;5015653;28;20216;-81
2023/03/22 00:24:58;;;;;;;9.10;6.10;;;;;;;9.32;92.66;100121.00;5016330;28;20560;-82
2023/03/22 00:27:25;;;;;;;6.87;6.17;;;;;;;9.23;92.65;100124.63;5014320;28;20220;-81
2023/03/22 00:29:52;;;;;;;7.50;6.30;;;;;;;9.23;92.68;100121.16;5002225;28;20207;-81
2023/03/22 00:32:18;;;;;;;6.27;5.77;;;;;;;9.18;92.99;100117.78;4996423;28;20259;-81
2023/03/22 00:34:45;;;;;;;6.53;5.90;;;;;;;8.95;92.97;100117.31;4996285;28;20235;-82
2023/03/22 00:37:11;;;;;;;8.77;7.93;;;;;;;8.93;93.57;100094.78;4996195;28;20229;-79
2023/03/22 00:39:37;;;;;;;7.83;7.13;;;;;;;8.93;93.80;100090.44;4996259;28;20277;-81
2023/03/22 00:42:04;;;;;;;6.87;6.37;;;;;;;8.89;93.31;100086.19;4996250;28;20715;-82
2023/03/22 00:44:32;;;;;;;6.97;6.27;;;;;;;8.92;93.12;100082.69;4995870;28;20207;-80
2023/03/22 00:46:58;;;;;;;5.70;5.20;;;;;;;8.83;93.55;100075.88;4997080;28;20233;-81
2023/03/22 00:49:26;;;;;;;7.70;7.00;;;;;;;8.86;93.52;100081.03;4996350;28;20209;-80
2023/03/22 00:51:52;;;;;;;8.77;8.07;;;;;;;8.89;93.47;100064.50;4995915;28;20718;-82
2023/03/22 00:54:19;;;;;;;8.20;7.50;;;;;;;8.93;93.15;100066.16;4996050;28;20237;-80
2023/03/22 00:56:45;;;;;;;8.87;8.10;;;;;;;8.92;93.06;100065.31;4996376;28;20237;-81
2023/03/22 00:59:12;;;;;;;8.63;7.87;;;;;;;8.99;92.93;100073.00;4996261;28;20265;-79
2023/03/22 01:01:40;;;;;;;8.97;8.27;;;;;;;9.04;92.51;100078.97;4996405;28;20255;-81
2023/03/22 01:04:06;;;;;;;9.17;8.33;;;;;;;9.06;92.77;100080.69;4996844;28;20242;-82
2023/03/22 01:06:33;;;;;;;9.73;8.90;;;;;;;9.10;92.79;100082.34;4996125;28;20261;-81
2023/03/22 01:09:00;;;;;;;9.90;9.10;;;;;;;9.11;91.94;100089.25;5011873;28;20198;-80
2023/03/22 01:11:27;;;;;;;12.90;8.07;;;;;;;9.08;92.26;100086.72;5015777;28;20610;-81
2023/03/22 01:13:53;;;;;;;9.00;8.20;;;;;;;9.07;92.24;100090.19;5015320;28;20578;-81
2023/03/22 01:16:20;;;;;;;10.03;9.23;;;;;;;9.13;92.08;100084.00;5016091;28;20209;-81
2023/03/22 01:18:47;;;;;;;9.00;8.10;;;;;;;9.15;91.94;100084.84;5015519;28;20234;-81
2023/03/22 01:21:14;;;;;;;8.23;7.50;;;;;;;9.16;91.81;100081.38;5015407;28;20290;-81
2023/03/22 01:23:40;;;;;;;10.27;9.37;;;;;;;9.23;91.78;100079.50;5015160;28;20621;-79
2023/03/22 01:26:07;;;;;;;10.20;9.20;;;;;;;9.27;92.02;100075.94;5016133;28;20267;-81
2023/03/22 01:28:33;;;;;;;9.97;9.07;;;;;;;9.22;91.69;100081.25;5004960;28;20254;-81
2023/03/22 01:31:01;;;;;;;9.90;8.87;;;;;;;9.27;91.52;100083.75;4995932;28;20220;-80
2023/03/22 01:33:27;;;;;;;9.60;8.80;;;;;;;9.31;91.85;100080.19;4995703;28;20208;-80
2023/03/22 01:35:55;;;;;;;9.90;9.10;;;;;;;9.28;91.71;100078.53;4995967;28;20258;-79
2023/03/22 01:38:21;;;;;;;10.17;9.30;;;;;;;9.34;91.40;100086.22;4995775;28;20214;-81
2023/03/22 01:40:47;;;;;;;10.60;9.50;;;;;;;9.40;91.19;100087.84;4995477;28;20295;-79
2023/03/22 01:43:16;;;;;;;10.40;9.40;;;;;;;9.30;90.61;100102.78;4995211;28;20209;-81
2023/03/22 01:45:46;;;;;;;10.80;9.70;;;;;;;9.43;90.95;100090.38;4995841;28;20215;-82
2023/03/22 01:48:21;;;;;;;10.60;9.73;;;;;;;9.51;90.83;100098.03;4998246;28;20224;-81
2023/03/22 01:50:56;;;;;;;12.13;9.60;;;;;;;9.53;90.87;100096.25;5015792;28;20233;-79
2023/03/22 01:53:26;;;;;;;10.13;9.27;;;;;;;9.53;91.16;100091.03;5014792;28;20302;-80
2023/03/22 01:55:53;;;;;;;9.27;8.47;;;;;;;9.56;90.91;100090.16;5015492;28;20304;-81
2023/03/22 01:58:20;;;;;;;10.70;9.90;;;;;;;9.44;90.94;100088.66;5015230;28;20217;-81
2023/03/22 02:00:47;;;;;;;11.13;10.13;;;;;;;9.44;91.54;100079.06;5014780;28;20603;-81
2023/03/22 02:03:18;;;;;;;12.47;8.90;;;;;;;9.46;91.57;100073.84;5015454;28;20210;-81
2023/03/22 02:05:44;;;;;;;9.20;8.40;;;;;;;9.31;91.86;100062.81;5015390;28;20244;-81
2023/03/22 02:08:13;;;;;;;9.73;8.93;;;;;;;9.32;92.08;100048.91;5014495;28;20229;-81
2023/03/22 02:10:41;;;;;;;10.67;9.73;;;;;;;9.31;92.21;100038.53;5015486;28;20619;-81
2023/03/22 02:13:37;;;;;;;9.73;9.03;;;;;;;9.37;92.66;100027.13;5015539;28;20207;-79
2023/03/22 02:16:16;;;;;;;9.47;8.47;;;;;;;9.31;93.16;100015.09;5015594;28;20554;-81
2023/03/22 02:18:58;;;;;;;10.47;9.37;;;;;;;9.28;93.30;100003.00;5015395;28;20201;-81
2023/03/22 02:21:44;;;;;;;15.63;12.00;;;;;;;9.25;93.05;99999.59;5015519;28;20300;-80
2023/03/22 02:24:40;;;;;;;11.47;10.57;;;;;;;9.37;92.94;99999.31;5015077;28;20231;-81
2023/03/22 02:27:32;;;;;;;11.90;10.80;;;;;;;9.42;93.40;99996.66;5014876;28;20269;-79
2023/03/22 02:30:26;;;;;;;12.43;11.33;;;;;;;9.38;93.12;100005.41;5003236;28;20234;-82
2023/03/22 02:33:07;;;;;;;12.40;11.30;;;;;;;9.41;92.83;100013.16;4995317;28;20235;-80
2023/03/22 02:35:41;;;;;;;12.20;11.10;;;;;;;9.42;93.12;100002.72;4995175;28;20216;-80
2023/03/22 02:38:25;;;;;;;12.43;11.30;;;;;;;9.45;92.99;99997.41;4994795;28;20203;-81
2023/03/22 02:40:59;;;;;;;12.80;11.67;;;;;;;9.50;92.61;99997.34;4995850;28;20272;-81
2023/03/22 02:43:33;;;;;;;11.27;10.37;;;;;;;9.47;93.36;99990.41;4995076;28;20262;-79
2023/03/22 02:46:06;;;;;;;11.10;10.23;;;;;;;9.49;93.38;99983.47;4995404;28;20213;-81
2023/03/22 02:48:39;;;;;;;11.10;10.17;;;;;;;9.46;93.43;99982.66;4995468;28;20216;-81
2023/03/22 02:51:09;;;;;;;12.63;11.53;;;;;;;9.46;93.33;99978.31;5009742;28;20752;-81
2023/03/22 02:53:41;;;;;;;13.07;11.97;;;;;;;9.50;92.62;99994.72;5016770;28;20273;-81
2023/03/22 02:56:13;;;;;;;11.93;10.93;;;;;;;9.55;92.60;99998.06;5018961;28;20587;-81
2023/03/22 02:58:44;;;;;;;12.03;10.93;;;;;;;9.57;92.96;100004.09;5018620;28;20232;-80
2023/03/22 03:01:17;;;;;;;11.10;10.10;;;;;;;9.59;92.55;100001.47;5008263;28;20223;-80
2023/03/22 03:03:47;;;;;;;12.87;11.87;;;;;;;9.60;92.03;100021.44;4998403;28;20301;-81
2023/03/22 03:06:17;;;;;;;14.10;12.87;;;;;;;9.58;92.21;100021.47;4999267;28;20216;-80
2023/03/22 03:08:49;;;;;;;12.97;11.67;;;;;;;9.57;91.65;100035.38;4999112;28;20248;-81
2023/03/22 03:11:17;;;;;;;11.50;10.60;;;;;;;9.63;92.12;100026.56;4999119;28;20266;-80
2023/03/22 03:13:46;;;;;;;11.77;10.77;;;;;;;9.66;92.10;100021.31;4998780;28;20241;-81
2023/03/22 03:16:16;;;;;;;12.40;11.27;;;;;;;9.66;92.13;100018.69;4999226;28;20214;-80
2023/03/22 03:18:47;;;;;;;12.30;11.30;;;;;;;9.65;92.36;100019.59;4998643;28;20679;-82
2023/03/22 03:21:24;;;;;;;13.50;12.10;;;;;;;9.63;92.17;100017.03;4998770;28;20225;-78
2023/03/22 03:23:59;;;;;;;12.50;11.43;;;;;;;9.59;92.31;100014.50;4998805;28;20214;-82
2023/03/22 03:26:35;;;;;;;10.50;9.53;;;;;;;9.56;92.93;100002.41;4998429;28;20210;-81
2023/03/22 03:29:05;;;;;;;11.93;10.83;;;;;;;9.58;92.57;99994.56;4999226;28;20232;-79
2023/03/22 03:31:36;;;;;;;12.87;11.77;;;;;;;9.47;92.08;100011.25;5003318;28;20257;-81
2023/03/22 03:34:13;;;;;;;12.73;11.63;;;;;;;9.52;92.23;100006.81;5017433;28;20235;-81
2023/03/22 03:36:44;;;;;;;12.80;11.40;;;;;;;9.61;92.35;100002.28;5016463;28;20207;-79
2023/03/22 03:39:14;;;;;;;12.20;11.10;;;;;;;9.58;91.58;100018.88;5018552;28;20630;-81
2023/03/22 03:41:44;;;;;;;12.77;11.67;;;;;;;9.62;92.07;100004.88;5017873;28;20229;-81
2023/03/22 03:44:12;;;;;;;12.00;10.77;;;;;;;9.65;92.39;99994.41;5018202;28;20235;-81
2023/03/22 03:46:39;;;;;;;12.10;10.93;;;;;;;9.59;91.63;100004.09;5018352;28;20245;-81
2023/03/22 03:49:08;;;;;;;12.30;11.20;;;;;;;9.64;91.63;100010.91;5018535;28;20743;-80
2023/03/22 03:51:46;;;;;;;12.73;10.80;;;;;;;9.70;91.47;100007.31;5016250;28;20243;-81
2023/03/22 03:54:12;;;;;;;12.73;11.53;;;;;;;9.68;91.58;100015.16;5019413;28;20685;-81
2023/03/22 03:56:38;;;;;;;11.53;10.63;;;;;;;9.68;91.67;100002.13;5018328;28;20203;-81
2023/03/22 03:59:07;;;;;;;11.33;10.33;;;;;;;9.68;91.65;100002.13;5018258;28;20209;-81
2023/03/22 04:01:34;;;;;;;11.50;10.40;;;;;;;9.66;91.87;99998.72;5017681;28;20226;-80
2023/03/22 04:04:00;;;;;;;10.93;10.03;;;;;;;9.57;92.53;99980.66;5018433;28;20214;-80
2023/03/22 04:06:26;;;;;;;10.20;9.40;;;;;;;9.52;92.89;99972.94;5018142;28;20203;-80
2023/03/22 04:08:55;;;;;;;10.23;9.23;;;;;;;9.46;93.59;99960.06;5018429;28;20253;-80
2023/03/22 04:11:21;;;;;;;9.17;8.47;;;;;;;9.47;94.02;99927.03;5018425;28;20241;-82
2023/03/22 04:13:48;;;;;;;10.73;9.83;;;;;;;9.45;94.42;99927.06;5017594;28;20212;-81
2023/03/22 04:16:15;;;;;;;10.17;9.37;;;;;;;9.40;94.77;99921.13;5018380;28;20259;-80
2023/03/22 04:18:41;;;;;;;10.40;9.40;;;;;;;9.42;95.04;99900.25;5018383;28;20216;-81
2023/03/22 04:21:10;;;;;;;13.03;9.20;;;;;;;9.43;95.19;99895.00;5018774;28;20224;-80
2023/03/22 04:23:37;;;;;;;10.67;9.67;;;;;;;9.44;95.24;99877.63;5018272;28;20203;-78
2023/03/22 04:26:04;;;;;;;11.37;10.33;;;;;;;9.45;95.21;99874.13;5020663;28;20691;-79
2023/03/22 04:28:32;;;;;;;11.43;10.43;;;;;;;9.36;96.16;99856.13;5021428;28;20286;-79
2023/03/22 04:30:58;;;;;;;15.03;12.50;;;;;;;9.38;95.89;99854.34;5021684;28;20230;-80
2023/03/22 04:33:26;;;;;;;14.27;13.13;;;;;;;9.41;95.73;99859.47;5012122;28;20239;-80
2023/03/22 04:35:55;;;;;;;13.87;12.57;;;;;;;9.42;96.12;99858.59;5001564;28;20212;-80
2023/03/22 04:38:22;;;;;;;11.87;10.87;;;;;;;9.47;95.77;99856.72;5000150;28;20642;-81
2023/03/22 04:40:49;;;;;;;15.80;14.40;;;;;;;9.55;95.08;99865.19;4997994;28;20298;-81
2023/03/22 04:43:17;;;;;;;12.43;11.23;;;;;;;9.46;95.42;99873.25;4997769;28;20207;-81
2023/03/22 04:45:45;;;;;;;13.73;12.53;;;;;;;9.45;95.40;99868.91;4998723;28;20219;-81
2023/03/22 04:48:11;;;;;;;14.37;13.00;;;;;;;9.46;95.24;99871.50;4998258;28;20721;-81
2023/03/22 04:50:39;;;;;;;15.77;14.20;;;;;;;9.40;95.01;99871.63;4997450;28;20722;-82
2023/03/22 04:53:06;;;;;;;15.13;13.73;;;;;;;9.49;94.70;99878.38;4998514;28;20230;-81
2023/03/22 04:55:33;;;;;;;14.30;12.90;;;;;;;9.51;94.34;99887.00;4978824;28;20210;-81
2023/03/22 04:58:00;;;;;;;15.73;14.13;;;;;;;9.48;93.23;99921.81;4977670;28;20277;-81
2023/03/22 05:00:29;;;;;;;15.23;13.87;;;;;;;9.50;93.80;99922.63;4977528;28;20256;-80
2023/03/22 05:02:56;;;;;;;14.87;13.60;;;;;;;9.51;92.80;99931.28;4975987;28;20208;-80
2023/03/22 05:05:22;;;;;;;14.93;13.40;;;;;;;9.57;92.75;99941.56;4976800;28;20204;-79
2023/03/22 05:07:49;;;;;;;15.23;13.83;;;;;;;9.59;92.75;99938.94;4976391;28;20341;-79
2023/03/22 05:10:16;;;;;;;13.70;12.47;;;;;;;9.57;93.02;99954.59;4976549;28;20576;-79
2023/03/22 05:12:42;;;;;;;14.37;13.17;;;;;;;9.63;92.97;99940.59;4976075;28;20240;-80
2023/03/22 05:15:09;;;;;;;15.63;14.23;;;;;;;9.62;92.72;99946.69;5013450;28;20227;-81
2023/03/22 05:17:35;;;;;;;15.00;13.60;;;;;;;9.62;92.00;99954.53;5014923;28;20580;-81
2023/03/22 05:20:08;;;;;;;14.73;13.30;;;;;;;9.63;91.58;99975.34;5015520;28;20213;-81
2023/03/22 05:22:39;;;;;;;14.37;12.87;;;;;;;9.62;91.19;99977.97;5015041;28;20216;-80
2023/03/22 05:25:09;;;;;;;15.20;13.80;;;;;;;9.66;90.88;99984.81;5015035;28;20213;-79
2023/03/22 05:27:37;;;;;;;14.50;13.20;;;;;;;9.64;91.83;99981.41;5015151;28;20266;-81
2023/03/22 05:30:05;;;;;;;14.27;12.87;;;;;;;9.60;91.19;99984.97;5014516;28;20723;-81
2023/03/22 05:32:32;;;;;;;13.87;12.67;;;;;;;9.61;91.16;99987.50;5014990;28;20235;-80
2023/03/22 05:35:02;;;;;;;14.70;13.20;;;;;;;9.63;91.68;99992.69;5002903;28;20199;-81
2023/03/22 05:37:28;;;;;;;14.90;13.37;;;;;;;9.56;91.20;100005.00;4995369;28;20214;-82
2023/03/22 05:39:55;;;;;;;14.47;13.07;;;;;;;9.63;92.25;99979.66;4994879;28;20670;-82
2023/03/22 05:42:22;;;;;;;15.63;13.87;;;;;;;9.60;91.75;99959.75;4994941;28;20232;-82
2023/03/22 05:44:49;;;;;;;14.83;13.43;;;;;;;9.67;91.91;99968.28;4995317;28;20207;-82
2023/03/22 05:47:15;;;;;;;13.77;12.47;;;;;;;9.65;91.67;99964.84;4995226;28;20219;-81
2023/03/22 05:49:41;;;;;;;14.50;13.00;;;;;;;9.70;91.79;99968.22;4995095;28;20323;-81
2023/03/22 05:52:08;;;;;;;14.93;13.53;;;;;;;9.71;91.62;99956.88;4995289;28;20238;-82
2023/03/22 05:54:34;;;;;;;14.37;13.07;;;;;;;9.78;91.47;99957.63;4996478;28;20201;-81
2023/03/22 05:57:01;;;;;;;15.27;13.93;;;;;;;9.81;91.53;99963.63;4994962;28;20233;-80
2023/03/22 05:59:28;;;;;;;13.07;11.87;;;;;;;9.82;91.45;99960.13;4995143;28;20231;-82
2023/03/22 06:01:55;;;;;;;14.27;13.07;;;;;;;9.83;90.49;99967.06;4994986;28;20278;-81
2023/03/22 06:04:21;;;;;;;13.40;12.20;;;;;;;9.90;90.96;99972.97;4994414;28;20215;-80
2023/03/22 06:06:47;;;;;;;14.87;13.57;;;;;;;9.93;90.63;99967.69;4995898;28;20398;-81
2023/03/22 06:09:14;;;;;;;13.47;12.27;;;;;;;9.85;89.83;99991.34;4994865;28;20295;-79
2023/03/22 06:11:40;;;;;;;14.53;13.33;;;;;;;9.82;89.82;99991.41;4995005;28;20231;-81
2023/03/22 06:14:07;;;;;;;13.97;12.60;;;;;;;9.95;90.16;99989.38;4995403;28;20208;-80
2023/03/22 06:16:34;;;;;;;13.97;12.80;;;;;;;10.04;90.18;99983.06;5007742;28;20242;-81
2023/03/22 06:19:01;;;;;;;13.67;12.47;;;;;;;10.05;89.82;99997.81;5014604;28;20207;-80
2023/03/22 06:21:27;;;;;;;13.33;12.17;;;;;;;10.08;89.44;99992.53;5014985;28;20259;-80
2023/03/22 06:23:54;;;;;;;13.40;12.37;;;;;;;10.11;89.54;100000.28;5015202;28;20248;-81
2023/03/22 06:26:20;;;;;;;15.37;12.23;;;;;;;10.13;89.29;99999.34;5015336;28;20207;-81
2023/03/22 06:28:46;;;;;;;13.10;12.00;;;;;;;10.19;89.24;100000.09;5019958;28;20264;-79
2023/03/22 06:31:13;;;;;;;14.07;12.87;;;;;;;10.18;89.46;100001.84;5018295;28;20254;-80
2023/03/22 06:33:40;;;;;;;13.70;12.50;;;;;;;10.14;89.13;100005.41;5018307;28;20216;-79
2023/03/22 06:36:07;;;;;;;15.13;13.73;;;;;;;10.25;88.94;100007.78;5013359;28;20233;-79
2023/03/22 06:38:33;;;;;;;13.80;12.50;;;;;;;10.27;89.37;100003.38;4998692;28;20249;-80
2023/03/22 06:41:00;;;;;;;14.27;12.97;;;;;;;10.31;88.38;100023.31;4998899;28;20231;-80
2023/03/22 06:43:26;;;;;;;14.10;12.97;;;;;;;10.32;88.45;100022.41;4997920;28;20616;-82
2023/03/22 06:45:52;;;;;;;12.70;11.70;;;;;;;10.40;88.33;100028.28;4998832;28;20611;-79
2023/03/22 06:48:19;;;;;;;13.17;12.07;;;;;;;10.32;86.83;100057.16;4998850;28;20254;-81
2023/03/22 06:50:46;;;;;;;13.63;12.47;;;;;;;10.25;87.88;100054.75;4998629;28;20270;-81
2023/03/22 06:53:13;;;;;;;13.60;12.40;;;;;;;10.31;88.78;100026.78;4999900;28;20270;-82
2023/03/22 06:55:39;;;;;;;13.93;12.83;;;;;;;10.28;87.99;100024.19;4999315;28;20241;-80
2023/03/22 06:58:06;;;;;;;13.20;12.00;;;;;;;10.39;87.82;100033.56;5014605;28;20236;-81
2023/03/22 07:00:33;;;;;;;13.37;12.00;;;;;;;10.44;88.30;100026.47;5018186;28;20231;-81
2023/03/22 07:02:59;;;;;;;15.07;13.67;;;;;;;10.50;87.94;100024.56;5017688;28;20612;-80
2023/03/22 07:05:26;;;;;;;12.65;11.48;;;;;;;10.56;88.19;100026.16;4325488;28;10021878;-81
2023/03/22 07:07:53;;;;;;;13.50;12.20;;;;;;;10.59;88.38;100014.78;4976411;28;20247;-81
2023/03/22 07:10:20;;;;;;;14.87;11.93;;;;;;;10.54;88.09;100025.31;4976571;28;20238;-80
2023/03/22 07:12:46;;;;;;;12.80;11.70;;;;;;;10.60;87.70;100021.72;4976676;28;20235;-80
2023/03/22 07:15:12;;;;;;;13.47;12.20;;;;;;;10.68;87.78;100010.19;4976789;28;20213;-80
2023/03/22 07:17:39;;;;;;;14.20;12.33;;;;;;;10.71;88.61;100004.03;4990073;28;20758;-82
2023/03/22 07:20:06;;;;;;;13.33;12.13;;;;;;;10.79;88.67;100002.06;4995761;28;20710;-80
2023/03/22 07:22:33;;;;;;;13.53;12.33;;;;;;;10.82;87.81;100009.81;4995280;28;20245;-81
2023/03/22 07:25:00;;;;;;;13.00;11.93;;;;;;;10.87;88.12;99999.25;4995472;28;20761;-81
2023/03/22 07:27:27;;;;;;;13.37;12.03;;;;;;;10.91;87.19;100020.00;4994719;28;20250;-81
2023/03/22 07:29:53;;;;;;;12.70;11.60;;;;;;;10.95;87.14;100027.75;4995109;28;20260;-81
2023/03/22 07:32:20;;;;;;;15.67;14.13;;;;;;;11.02;86.85;100024.06;4994611;28;20375;-81
2023/03/22 07:34:46;;;;;;;13.17;12.03;;;;;;;11.00;86.75;100033.69;4994976;28;20225;-81
2023/03/22 07:37:13;;;;;;;14.03;12.83;;;;;;;11.10;86.87;100035.19;4995815;28;20238;-81
2023/03/22 07:39:40;;;;;;;11.23;10.33;;;;;;;11.10;85.82;100058.69;4994368;28;20269;-81
2023/03/22 07:42:08;;;;;;;10.50;9.50;;;;;;;11.29;85.48;100059.03;4995104;28;20232;-80
2023/03/22 07:44:34;;;;;;;9.90;9.00;;;;;;;11.27;84.01;100095.66;4994982;28;20212;-81
2023/03/22 07:47:01;;;;;;;10.87;9.90;;;;;;;11.41;84.41;100099.66;4994738;28;20307;-81
2023/03/22 07:49:27;;;;;;;9.67;8.77;;;;;;;11.44;83.10;100133.53;4993693;28;20240;-80
2023/03/22 07:51:54;;;;;;;9.90;8.90;;;;;;;11.44;83.00;100141.38;4992905;28;20683;-80
2023/03/22 07:54:20;;;;;;;10.57;9.63;;;;;;;11.44;82.68;100141.38;4993209;28;20250;-79
2023/03/22 07:56:47;;;;;;;9.80;8.90;;;;;;;11.49;81.53;100158.63;4995163;28;20217;-80
2023/03/22 07:59:16;;;;;;;10.63;9.63;;;;;;;11.37;81.64;100177.25;4993952;28;20753;-80
2023/03/22 08:01:42;;;;;;;8.57;7.87;;;;;;;11.47;81.57;100159.59;4992455;28;20254;-79
2023/03/22 08:04:09;;;;;;;9.20;8.40;;;;;;;11.59;81.75;100169.69;4992508;28;20203;-80
2023/03/22 08:06:35;;;;;;;9.47;8.50;;;;;;;11.46;81.25;100166.56;4991738;28;20254;-80
2023/03/22 08:09:02;;;;;;;9.63;8.73;;;;;;;11.51;80.47;100182.97;4991876;28;20652;-80
2023/03/22 08:11:28;;;;;;;10.23;9.07;;;;;;;11.58;80.89;100198.50;4991348;28;20297;-81
2023/03/22 08:13:55;;;;;;;9.73;8.80;;;;;;;11.65;80.55;100202.66;4991447;28;20838;-80
2023/03/22 08:16:22;;;;;;;9.27;8.40;;;;;;;11.61;79.68;100217.56;4991627;28;20212;-80
2023/03/22 08:18:49;;;;;;;10.93;9.00;;;;;;;11.63;80.56;100218.38;5000062;28;20232;-80
2023/03/22 08:21:15;;;;;;;8.57;7.87;;;;;;;11.71;80.33;100221.69;5005356;28;21034;-79
2023/03/22 08:23:41;;;;;;;10.17;9.17;;;;;;;11.71;79.43;100212.94;4991544;28;20266;-79
2023/03/22 08:26:08;;;;;;;10.03;9.23;;;;;;;11.86;81.03;100206.47;4991856;28;20251;-80
2023/03/22 08:28:35;;;;;;;9.17;8.27;;;;;;;11.91;79.89;100217.66;4991633;28;20777;-79
2023/03/22 08:31:01;;;;;;;8.63;7.80;;;;;;;11.94;80.39;100214.97;4991744;28;20228;-79
2023/03/22 08:33:29;;;;;;;9.53;8.73;;;;;;;11.87;80.14;100206.41;4991217;28;20231;-80
2023/03/22 08:36:05;;;;;;;10.23;9.40;;;;;;;11.89;79.26;100204.66;4991516;28;20213;-79
2023/03/22 08:38:31;;;;;;;9.03;8.23;;;;;;;11.87;79.35;100210.78;4991643;28;20196;-79
2023/03/22 08:40:57;;;;;;;9.00;8.13;;;;;;;11.93;79.45;100213.25;4991657;28;20260;-79
2023/03/22 08:43:24;;;;;;;9.47;7.83;;;;;;;11.97;79.31;100203.56;4991172;28;20248;-78
2023/03/22 08:45:50;;;;;;;8.67;7.90;;;;;;;11.96;78.21;100188.78;4991581;28;20274;-79
2023/03/22 08:48:16;;;;;;;8.50;7.70;;;;;;;12.03;78.92;100200.75;4990743;28;20707;-80
2023/03/22 08:50:44;;;;;;;9.10;8.10;;;;;;;11.86;78.91;100199.47;4990391;28;20257;-79
2023/03/22 08:53:12;;;;;;;9.30;8.50;;;;;;;12.03;80.24;100187.69;4990852;28;20244;-79
2023/03/22 08:55:43;;;;;;;7.70;7.00;;;;;;;12.00;78.12;100193.03;4991374;28;20348;-79
2023/03/22 08:58:10;;;;;;;7.57;6.87;;;;;;;12.02;80.82;100186.84;4991180;28;20314;-79
2023/03/22 09:00:37;;;;;;;7.20;6.70;;;;;;;11.91;77.54;100186.28;5007885;28;20758;-79
2023/03/22 09:03:04;;;;;;;8.17;6.37;;;;;;;12.01;77.57;100213.03;5010281;28;20214;-79
2023/03/22 09:05:30;;;;;;;7.83;6.47;;;;;;;12.00;78.43;100220.03;5008442;28;20270;-80
2023/03/22 09:07:58;;;;;;;7.80;6.47;;;;;;;11.98;77.20;100203.53;4991193;28;20303;-79
2023/03/22 09:10:25;;;;;;;12.27;6.57;;;;;;;12.06;78.16;100213.78;4991168;28;20241;-79
2023/03/22 09:12:51;;;;;;;9.13;6.80;;;;;;;12.10;77.92;100223.25;4990875;28;20245;-80
2023/03/22 09:15:17;;;;;;;7.07;6.40;;;;;;;11.99;76.40;100228.78;4990730;28;20241;-79
2023/03/22 09:17:44;;;;;;;6.23;5.60;;;;;;;12.06;76.85;100238.16;4990708;28;20244;-80
2023/03/22 09:20:11;;;;;;;7.23;5.90;;;;;;;12.18;77.85;100221.25;4991335;28;20216;-79
2023/03/22 09:22:38;;;;;;;7.03;5.43;;;;;;;12.15;75.99;100225.72;4990464;28;20219;-80
2023/03/22 09:25:07;;;;;;;6.47;5.87;;;;;;;12.24;76.02;100236.78;4995175;28;20271;-81
2023/03/22 09:27:33;;;;;;;6.20;5.63;;;;;;;12.27;75.79;100247.16;4995957;28;20237;-81
2023/03/22 09:30:00;;;;;;;7.43;5.13;;;;;;;12.37;76.28;100252.13;4994969;28;20263;-80
2023/03/22 09:32:26;;;;;;;6.00;4.73;;;;;;;12.38;75.22;100257.31;4994926;28;20240;-82
2023/03/22 09:34:53;;;;;;;5.90;4.50;;;;;;;12.40;74.26;100278.22;4995324;28;20627;-80
2023/03/22 09:37:19;;;;;;;4.70;4.30;;;;;;;12.50;73.92;100300.59;4994566;28;20255;-83
2023/03/22 09:39:46;;;;;;;5.07;4.53;;;;;;;12.53;73.81;100290.06;4993799;28;20287;-82
2023/03/22 09:42:27;;;;;;;4.70;4.27;;;;;;;12.62;74.36;100300.22;4994038;28;20266;-80
2023/03/22 09:44:55;;;;;;;5.67;4.50;;;;;;;12.61;72.72;100282.81;4994126;28;20248;-80
2023/03/22 09:47:31;;;;;;;4.20;3.80;;;;;;;12.63;72.32;100329.91;4991529;28;20241;-79
2023/03/22 09:50:04;;;;;;;4.30;3.90;;;;;;;12.68;72.31;100318.38;4990495;28;20742;-80
2023/03/22 09:52:31;;;;;;;5.30;3.87;;;;;;;12.65;71.43;100344.69;4990360;28;20236;-80
2023/03/22 09:54:59;;;;;;;4.57;3.67;;;;;;;12.75;72.13;100352.28;4990418;28;20264;-80
2023/03/22 09:57:31;;;;;;;5.10;3.93;;;;;;;12.77;71.48;100368.81;4990483;28;20217;-79
2023/03/22 10:00:10;;;;;;;4.53;3.80;;;;;;;12.81;72.67;100365.19;4990508;28;20213;-80
2023/03/22 10:02:47;;;;;;;5.83;3.23;;;;;;;12.79;70.22;100349.50;5008744;28;20204;-80
2023/03/22 10:05:20;;;;;;;4.57;4.10;;;;;;;12.97;71.90;100362.97;5010100;28;20243;-80
2023/03/22 10:08:00;;;;;;;4.50;3.50;;;;;;;12.87;72.91;100347.50;4979689;28;20298;-79
2023/03/22 10:10:27;;;;;;;3.67;3.37;;;;;;;12.95;72.65;100318.47;5009644;28;20274;-80
2023/03/22 10:13:00;;;;;;;3.40;3.10;;;;;;;12.97;71.70;100345.47;5009329;28;20314;-80
2023/03/22 10:15:31;;;;;;;3.23;2.27;;;;;;;12.95;69.93;100357.78;5009770;28;20223;-78
2023/03/22 10:18:00;;;;;;;4.20;3.30;;;;;;;13.01;70.14;100389.03;5009898;28;20212;-80
2023/03/22 10:20:36;;;;;;;5.40;3.10;;;;;;;13.10;69.58;100386.13;5009514;28;20267;-79
2023/03/22 10:23:06;;;;;;;3.20;2.57;;;;;;;13.07;68.19;100407.19;5007295;28;20211;-78
2023/03/22 10:25:36;;;;;;;3.10;2.80;;;;;;;13.19;68.81;100412.97;5009814;28;20245;-79
2023/03/22 10:28:14;;;;;;;4.27;3.37;;;;;;;13.18;68.01;100434.81;5011556;28;20217;-78
2023/03/22 10:30:42;;;;;;;9.23;3.93;;;;;;;13.30;69.89;100437.13;5011674;28;20261;-80
2023/03/22 10:33:14;;;;;;;3.87;3.03;;;;;;;13.20;68.42;100440.88;5010060;28;20208;-80
2023/03/22 10:35:42;;;;;;;4.23;2.87;;;;;;;13.26;68.04;100438.06;5010644;28;20212;-81
2023/03/22 10:38:18;;;;;;;3.10;2.80;;;;;;;13.27;68.30;100442.44;5011090;28;20211;-80
2023/03/22 10:40:46;;;;;;;3.70;3.20;;;;;;;13.34;68.07;100430.91;5010948;28;20255;-81
2023/03/22 10:43:21;;;;;;;2.90;2.57;;;;;;;13.41;67.91;100439.41;5007976;28;20242;-79
2023/03/22 10:45:48;;;;;;;3.37;2.70;;;;;;;13.54;68.31;100424.16;5010472;28;20207;-81
2023/03/22 10:48:24;;;;;;;3.30;2.90;;;;;;;13.64;69.61;100404.63;5011163;28;20655;-81
2023/03/22 10:50:51;;;;;;;4.17;2.70;;;;;;;13.51;67.19;100430.34;5010243;28;20255;-80
2023/03/22 10:53:27;;;;;;;3.27;2.33;;;;;;;13.53;67.28;100446.91;5009547;28;20235;-80
2023/03/22 10:55:54;;;;;;;4.07;3.33;;;;;;;13.40;66.27;100471.78;5009774;28;20733;-79
2023/03/22 10:58:22;;;;;;;2.90;2.60;;;;;;;13.53;66.64;100472.28;5009392;28;20236;-78
2023/03/22 11:00:51;;;;;;;3.23;2.20;;;;;;;13.62;65.79;100506.94;5009662;28;20318;-80
2023/03/22 11:03:26;;;;;;;3.17;2.57;;;;;;;13.74;66.31;100507.50;4992068;28;20211;-79
2023/03/22 11:05:59;;;;;;;2.70;2.50;;;;;;;13.62;64.59;100513.97;4989788;28;20213;-79
2023/03/22 11:08:25;;;;;;;2.80;2.37;;;;;;;13.65;64.60;100524.34;4992102;28;20599;-81
2023/03/22 11:10:53;;;;;;;2.90;2.40;;;;;;;13.89;66.19;100518.38;5008840;28;20261;-80
2023/03/22 11:13:23;;;;;;;2.83;2.27;;;;;;;13.98;65.75;100513.72;5008957;28;20215;-81
2023/03/22 11:15:54;;;;;;;3.40;2.50;;;;;;;13.99;65.35;100507.56;5013047;28;20630;-79
2023/03/22 11:18:20;;;;;;;3.07;2.50;;;;;;;14.17;64.44;100483.34;5012937;28;20194;-81
2023/03/22 11:20:57;;;;;;;2.40;2.20;;;;;;;14.03;63.56;100522.28;5012686;28;20261;-80
2023/03/22 11:23:25;;;;;;;2.47;2.27;;;;;;;13.99;62.87;100518.91;5011555;28;20757;-80
2023/03/22 11:25:55;;;;;;;2.67;2.47;;;;;;;14.04;63.23;100524.88;5013691;28;20236;-81
2023/03/22 11:28:28;;;;;;;3.57;2.73;;;;;;;14.13;64.02;100536.84;5013874;28;20632;-80
2023/03/22 11:31:00;;;;;;;2.43;2.17;;;;;;;14.08;63.99;100551.91;5013247;28;20325;-81